Time;durP1;ratioP1;P1;durP2;ratioP2;P2;SDS_P1;SDS_P2;PMS_P1;PMS_P2;Temp;Humidity;BMP_temperature;BMP_pressure;BME280_temperature;BME280_humidity;BME280_pressure;Samples;Min_cycle;Max_cycle;Signal;HPM_P1;HPM_P2
2023/04/11 00:00:21;;;;;;;4.77;4.53;;;;;;;;;;6283725;28;20310;-74
2023/04/11 00:03:28;;;;;;;4.87;4.57;;;;;;;;;;6283481;28;20287;-74
2023/04/11 00:06:34;;;;;;;5.53;4.80;;;;;;;;;;6283662;28;20292;-74
2023/04/11 00:09:39;;;;;;;7.70;5.47;;;;;;;;;;6264982;28;20291;-74
2023/04/11 00:12:44;;;;;;;5.83;4.80;;;;;;;;;;6283653;28;20338;-74
2023/04/11 00:15:52;;;;;;;6.03;5.13;;;;;;;;;;6283208;28;20292;-74
2023/04/11 00:18:58;;;;;;;5.27;4.77;;;;;;;;;;6282832;28;20292;-74
2023/04/11 00:22:03;;;;;;;6.67;5.00;;;;;;;;;;6283651;28;20437;-74
2023/04/11 00:25:09;;;;;;;9.10;5.13;;;;;;;;;;6282645;28;20296;-74
2023/04/11 00:28:14;;;;;;;5.80;4.87;;;;;;;;;;6282699;28;20307;-74
2023/04/11 00:31:19;;;;;;;8.50;5.47;;;;;;;;;;6282929;28;20296;-74
2023/04/11 00:34:26;;;;;;;7.03;5.23;;;;;;;;;;6283394;28;20291;-75
2023/04/11 00:37:34;;;;;;;9.93;5.37;;;;;;;;;;6266770;28;20287;-74
2023/04/11 00:40:40;;;;;;;8.43;5.60;;;;;;;;;;6269362;28;20299;-74
2023/04/11 00:43:48;;;;;;;5.63;5.20;;;;;;;;;;6270090;28;20292;-74
2023/04/11 00:46:53;;;;;;;5.93;5.23;;;;;;;;;;6288075;28;20291;-74
2023/04/11 00:50:00;;;;;;;11.80;5.67;;;;;;;;;;6287408;28;20298;-75
2023/04/11 00:53:05;;;;;;;8.83;5.57;;;;;;;;;;6269399;28;20302;-74
2023/04/11 00:56:12;;;;;;;10.43;5.70;;;;;;;;;;6269862;28;20290;-74
2023/04/11 00:59:17;;;;;;;8.90;5.43;;;;;;;;;;6287162;28;20289;-74
2023/04/11 01:02:23;;;;;;;17.60;6.07;;;;;;;;;;6291847;22;20293;-76
2023/04/11 01:05:32;;;;;;;8.97;5.70;;;;;;;;;;6304198;28;20295;-76
2023/04/11 01:08:39;;;;;;;15.07;6.23;;;;;;;;;;6311265;28;20305;-77
2023/04/11 01:11:44;;;;;;;8.13;5.43;;;;;;;;;;6311834;28;20266;-76
2023/04/11 01:14:50;;;;;;;10.37;5.77;;;;;;;;;;6293581;28;20424;-75
2023/04/11 01:17:56;;;;;;;19.50;6.33;;;;;;;;;;6293619;28;20272;-75
2023/04/11 01:21:03;;;;;;;9.70;6.13;;;;;;;;;;6312712;28;20319;-75
2023/04/11 01:24:10;;;;;;;13.73;6.03;;;;;;;;;;6311320;28;20298;-76
2023/04/11 01:27:16;;;;;;;7.73;5.87;;;;;;;;;;6294170;28;20288;-75
2023/04/11 01:30:21;;;;;;;7.13;5.60;;;;;;;;;;6293620;28;20298;-75
2023/04/11 01:33:26;;;;;;;10.83;6.20;;;;;;;;;;6293757;28;20308;-76
2023/04/11 01:36:32;;;;;;;7.30;6.03;;;;;;;;;;6293632;28;20282;-77
2023/04/11 01:39:38;;;;;;;10.50;5.83;;;;;;;;;;6293115;28;20320;-76
2023/04/11 01:42:44;;;;;;;7.17;5.33;;;;;;;;;;6293956;28;20294;-76
2023/04/11 01:45:50;;;;;;;9.97;5.50;;;;;;;;;;6293613;28;20302;-76
2023/04/11 01:48:56;;;;;;;6.60;5.77;;;;;;;;;;6291951;28;20287;-77
2023/04/11 01:52:02;;;;;;;9.87;6.43;;;;;;;;;;6311338;28;20640;-76
2023/04/11 01:55:10;;;;;;;6.60;6.00;;;;;;;;;;6293082;28;20305;-76
2023/04/11 01:58:15;;;;;;;8.67;5.60;;;;;;;;;;6310870;28;20289;-76
2023/04/11 02:01:21;;;;;;;6.93;5.97;;;;;;;;;;6293212;28;20296;-76
2023/04/11 02:04:27;;;;;;;6.40;5.77;;;;;;;;;;6292116;28;20294;-76
2023/04/11 02:07:32;;;;;;;10.90;6.43;;;;;;;;;;6293052;28;20392;-76
2023/04/11 02:10:39;;;;;;;10.20;6.33;;;;;;;;;;6310400;28;20305;-75
2023/04/11 02:13:45;;;;;;;9.50;6.40;;;;;;;;;;6292629;28;20295;-75
2023/04/11 02:16:53;;;;;;;7.87;6.27;;;;;;;;;;6293112;28;20291;-75
2023/04/11 02:19:58;;;;;;;7.00;6.40;;;;;;;;;;6292519;28;20299;-76
2023/04/11 02:23:03;;;;;;;6.77;6.17;;;;;;;;;;6292479;28;20299;-75
2023/04/11 02:26:10;;;;;;;6.73;6.23;;;;;;;;;;6292815;28;20434;-76
2023/04/11 02:29:15;;;;;;;8.30;6.23;;;;;;;;;;6309736;28;20292;-76
2023/04/11 02:32:20;;;;;;;6.37;5.93;;;;;;;;;;6310170;28;20294;-76
2023/04/11 02:35:26;;;;;;;7.73;6.60;;;;;;;;;;6291928;28;20302;-75
2023/04/11 02:38:31;;;;;;;10.87;6.67;;;;;;;;;;6309353;28;20296;-76
2023/04/11 02:41:39;;;;;;;6.63;6.03;;;;;;;;;;6292044;28;20298;-75
2023/04/11 02:44:44;;;;;;;7.40;6.70;;;;;;;;;;6291207;28;20304;-75
2023/04/11 02:47:50;;;;;;;8.33;6.30;;;;;;;;;;6292342;28;20269;-76
2023/04/11 02:50:55;;;;;;;9.17;6.53;;;;;;;;;;6291788;28;20466;-76
2023/04/11 02:54:00;;;;;;;7.60;6.83;;;;;;;;;;6291133;28;20298;-75
2023/04/11 02:57:07;;;;;;;8.77;7.20;;;;;;;;;;6292393;28;20294;-75
2023/04/11 03:00:13;;;;;;;8.10;6.17;;;;;;;;;;6310052;28;20286;-76
2023/04/11 03:03:25;;;;;;;6.77;6.20;;;;;;;;;;6290134;28;20304;-75
2023/04/11 03:06:32;;;;;;;9.93;6.63;;;;;;;;;;6275653;28;20289;-76
2023/04/11 03:09:38;;;;;;;17.03;6.90;;;;;;;;;;6309553;28;20588;-76
2023/04/11 03:12:45;;;;;;;10.80;6.73;;;;;;;;;;6291070;28;20291;-76
2023/04/11 03:15:51;;;;;;;11.43;6.27;;;;;;;;;;6291309;28;20578;-76
2023/04/11 03:18:57;;;;;;;13.93;7.37;;;;;;;;;;6303191;28;20293;-76
2023/04/11 03:22:02;;;;;;;10.00;7.50;;;;;;;;;;6283013;28;20295;-76
2023/04/11 03:25:08;;;;;;;16.27;6.83;;;;;;;;;;6282746;28;20465;-75
2023/04/11 03:28:15;;;;;;;11.83;6.87;;;;;;;;;;6284215;28;20318;-77
2023/04/11 03:31:20;;;;;;;15.53;6.80;;;;;;;;;;6283430;28;20299;-76
2023/04/11 03:34:28;;;;;;;14.37;7.13;;;;;;;;;;6282644;28;20599;-75
2023/04/11 03:37:35;;;;;;;24.17;6.80;;;;;;;;;;6291423;28;20283;-75
2023/04/11 03:40:40;;;;;;;15.47;7.37;;;;;;;;;;6290939;28;20578;-76
2023/04/11 03:43:51;;;;;;;25.17;7.43;;;;;;;;;;6291022;28;20296;-75
2023/04/11 03:46:57;;;;;;;17.50;7.53;;;;;;;;;;6291729;28;20297;-76
2023/04/11 03:50:14;;;;;;;19.57;7.27;;;;;;;;;;6291391;28;20459;-75
2023/04/11 03:53:24;;;;;;;18.07;7.10;;;;;;;;;;6281045;28;20296;-75
2023/04/11 03:56:33;;;;;;;19.43;7.20;;;;;;;;;;6291564;28;20338;-76
2023/04/11 03:59:40;;;;;;;20.40;7.80;;;;;;;;;;6307379;28;20298;-75
2023/04/11 04:02:48;;;;;;;13.80;7.63;;;;;;;;;;6299554;28;20299;-75
2023/04/11 04:05:54;;;;;;;18.13;6.77;;;;;;;;;;6308615;28;20270;-76
2023/04/11 04:09:00;;;;;;;13.83;7.63;;;;;;;;;;6315608;28;20289;-76
2023/04/11 04:12:16;;;;;;;26.57;7.17;;;;;;;;;;6313577;28;20295;-76
2023/04/11 04:15:42;;;;;;;11.20;7.10;;;;;;;;;;6337690;28;20574;-77
2023/04/11 04:18:49;;;;;;;11.10;7.80;;;;;;;;;;6320131;28;20290;-76
2023/04/11 04:21:57;;;;;;;16.60;7.47;;;;;;;;;;6320889;28;20575;-75
2023/04/11 04:25:11;;;;;;;13.43;7.90;;;;;;;;;;6319754;28;20566;-75
2023/04/11 04:28:31;;;;;;;11.40;7.43;;;;;;;;;;6322039;28;20618;-75
2023/04/11 04:31:41;;;;;;;10.43;7.40;;;;;;;;;;6320174;28;20392;-76
2023/04/11 04:34:48;;;;;;;18.10;8.07;;;;;;;;;;6319964;28;20289;-77
2023/04/11 04:38:05;;;;;;;17.97;8.23;;;;;;;;;;6319798;28;20321;-76
2023/04/11 04:41:21;;;;;;;19.97;7.77;;;;;;;;;;6319945;28;20297;-77
2023/04/11 04:44:36;;;;;;;15.23;7.37;;;;;;;;;;6317065;28;20296;-74
2023/04/11 04:47:51;;;;;;;10.63;6.93;;;;;;;;;;6319184;28;20346;-76
2023/04/11 04:50:56;;;;;;;15.97;8.43;;;;;;;;;;6319991;28;20294;-76
2023/04/11 04:54:03;;;;;;;12.33;7.97;;;;;;;;;;6319068;28;20294;-76
2023/04/11 04:57:09;;;;;;;12.77;7.17;;;;;;;;;;6320285;28;20433;-75
2023/04/11 05:00:15;;;;;;;11.27;7.87;;;;;;;;;;6319517;28;20303;-75
2023/04/11 05:03:23;;;;;;;14.63;7.80;;;;;;;;;;6319196;28;20301;-76
2023/04/11 05:06:31;;;;;;;7.63;6.90;;;;;;;;;;6319655;28;20299;-76
2023/04/11 05:09:38;;;;;;;12.00;8.43;;;;;;;;;;6318658;28;20297;-76
2023/04/11 05:12:53;;;;;;;13.83;7.83;;;;;;;;;;6294431;28;20290;-76
2023/04/11 05:15:58;;;;;;;9.93;7.80;;;;;;;;;;6294749;28;20303;-76
2023/04/11 05:19:05;;;;;;;13.40;7.50;;;;;;;;;;6293869;28;20296;-75
2023/04/11 05:22:13;;;;;;;9.67;6.80;;;;;;;;;;6293703;28;20535;-75
2023/04/11 05:25:24;;;;;;;14.83;7.23;;;;;;;;;;6293415;28;20305;-75
2023/04/11 05:28:31;;;;;;;13.43;7.20;;;;;;;;;;6293419;28;20297;-76
2023/04/11 05:31:37;;;;;;;7.90;7.03;;;;;;;;;;6294120;28;20298;-76
2023/04/11 05:34:53;;;;;;;11.13;6.70;;;;;;;;;;6293444;28;20297;-75
2023/04/11 05:38:26;;;;;;;9.17;7.13;;;;;;;;;;6302686;28;20301;-76
2023/04/11 05:41:31;;;;;;;8.40;6.87;;;;;;;;;;6311590;28;20286;-75
2023/04/11 05:44:36;;;;;;;10.67;6.50;;;;;;;;;;6310717;28;20297;-75
2023/04/11 05:47:41;;;;;;;10.17;6.37;;;;;;;;;;6309998;28;20266;-75
2023/04/11 05:50:48;;;;;;;12.13;7.00;;;;;;;;;;6311787;28;20547;-75
2023/04/11 05:53:53;;;;;;;7.70;6.67;;;;;;;;;;6310591;28;20298;-76
2023/04/11 05:56:58;;;;;;;7.63;6.23;;;;;;;;;;6312116;28;20290;-76
2023/04/11 06:00:11;;;;;;;18.63;7.30;;;;;;;;;;6310505;28;20294;-76
2023/04/11 06:03:16;;;;;;;11.00;6.17;;;;;;;;;;6310181;28;20462;-76
2023/04/11 06:06:24;;;;;;;9.07;6.37;;;;;;;;;;6311064;28;20606;-76
2023/04/11 06:09:30;;;;;;;9.07;5.80;;;;;;;;;;6310453;28;20573;-75
2023/04/11 06:12:38;;;;;;;6.97;5.80;;;;;;;;;;6335402;28;20293;-77
2023/04/11 06:15:43;;;;;;;7.23;6.10;;;;;;;;;;6335878;28;20296;-76
2023/04/11 06:18:48;;;;;;;6.20;5.70;;;;;;;;;;6326866;28;20297;-76
2023/04/11 06:21:54;;;;;;;10.40;5.50;;;;;;;;;;6335908;28;20300;-76
2023/04/11 06:24:59;;;;;;;6.10;5.50;;;;;;;;;;6335232;28;20293;-76
2023/04/11 06:28:05;;;;;;;5.83;5.27;;;;;;;;;;6316830;28;20306;-77
2023/04/11 06:31:10;;;;;;;10.30;7.20;;;;;;;;;;6317444;28;20295;-75
2023/04/11 06:34:15;;;;;;;10.47;6.23;;;;;;;;;;6335059;28;20299;-75
2023/04/11 06:37:23;;;;;;;6.30;5.70;;;;;;;;;;6335620;28;20293;-75
2023/04/11 06:40:28;;;;;;;5.97;5.23;;;;;;;;;;6335203;28;20294;-75
2023/04/11 06:43:33;;;;;;;8.60;4.93;;;;;;;;;;6335583;28;20306;-76
2023/04/11 06:46:38;;;;;;;5.20;4.30;;;;;;;;;;6335286;28;20311;-77
2023/04/11 06:49:43;;;;;;;4.60;4.10;;;;;;;;;;6334790;28;20304;-76
2023/04/11 06:52:50;;;;;;;3.87;3.67;;;;;;;;;;6334763;28;20290;-77
2023/04/11 06:55:55;;;;;;;4.80;3.97;;;;;;;;;;6335328;28;20288;-75
2023/04/11 06:59:01;;;;;;;6.27;3.57;;;;;;;;;;6334712;28;20296;-76
2023/04/11 07:02:06;;;;;;;4.87;3.20;;;;;;;;;;6334720;28;20296;-77
2023/04/11 07:05:12;;;;;;;3.40;3.20;;;;;;;;;;6334758;28;20288;-75
2023/04/11 07:08:18;;;;;;;7.00;3.23;;;;;;;;;;6316284;28;20588;-77
2023/04/11 07:11:24;;;;;;;3.07;2.87;;;;;;;;;;6331954;28;20290;-76
2023/04/11 07:14:29;;;;;;;4.77;3.07;;;;;;;;;;6334190;28;20452;-75
2023/04/11 07:17:34;;;;;;;4.63;3.33;;;;;;;;;;6334954;28;20301;-76
2023/04/11 07:20:39;;;;;;;6.83;3.43;;;;;;;;;;6333422;28;20298;-76
2023/04/11 07:23:46;;;;;;;4.60;2.90;;;;;;;;;;6333810;28;20300;-76
2023/04/11 07:26:52;;;;;;;5.03;2.90;;;;;;;;;;6334384;28;20582;-76
2023/04/11 07:29:57;;;;;;;2.93;2.70;;;;;;;;;;6334076;28;20302;-77
2023/04/11 07:33:03;;;;;;;3.60;2.83;;;;;;;;;;6334292;28;20290;-75
2023/04/11 07:36:10;;;;;;;4.57;3.08;;;;;;;;;;6333850;28;20290;-75
2023/04/11 07:39:17;;;;;;;5.43;3.00;;;;;;;;;;6316129;28;20290;-75
2023/04/11 07:42:22;;;;;;;3.50;2.70;;;;;;;;;;6334166;28;20285;-76
2023/04/11 07:45:27;;;;;;;5.82;2.80;;;;;;;;;;6311148;28;20294;-75
2023/04/11 07:48:32;;;;;;;8.00;2.83;;;;;;;;;;6311421;28;20294;-76
2023/04/11 07:51:38;;;;;;;6.03;2.60;;;;;;;;;;6314767;28;20557;-77
2023/04/11 07:54:44;;;;;;;3.25;2.70;;;;;;;;;;6296387;28;20321;-76
2023/04/11 07:57:49;;;;;;;6.50;2.97;;;;;;;;;;6313768;28;20293;-75
2023/04/11 08:00:55;;;;;;;7.75;2.83;;;;;;;;;;6314343;28;20301;-77
2023/04/11 08:04:00;;;;;;;4.00;2.58;;;;;;;;;;6313310;28;20294;-74
2023/04/11 08:07:06;;;;;;;3.92;2.80;;;;;;;;;;6314016;28;20301;-76
2023/04/11 08:10:13;;;;;;;7.07;2.75;;;;;;;;;;6316205;28;20297;-77
2023/04/11 08:13:18;;;;;;;4.40;3.00;;;;;;;;;;6313274;28;20589;-77
2023/04/11 08:16:23;;;;;;;4.18;2.72;;;;;;;;;;6313460;28;20567;-75
2023/04/11 08:19:28;;;;;;;4.15;2.80;;;;;;;;;;6313352;28;20298;-78
2023/04/11 08:22:34;;;;;;;11.75;3.20;;;;;;;;;;6313253;28;20294;-76
2023/04/11 08:25:40;;;;;;;11.70;2.72;;;;;;;;;;6312396;28;20291;-75
2023/04/11 08:28:46;;;;;;;3.33;2.60;;;;;;;;;;6313108;28;20358;-76
2023/04/11 08:31:51;;;;;;;4.85;2.70;;;;;;;;;;6313395;28;20554;-77
2023/04/11 08:34:56;;;;;;;6.03;2.55;;;;;;;;;;6312998;28;20290;-77
2023/04/11 08:38:01;;;;;;;2.70;2.60;;;;;;;;;;6312690;28;20293;-77
2023/04/11 08:41:08;;;;;;;3.03;2.65;;;;;;;;;;6313541;28;20477;-78
2023/04/11 08:44:13;;;;;;;5.00;2.75;;;;;;;;;;6312555;28;20607;-76
2023/04/11 08:47:18;;;;;;;3.05;2.75;;;;;;;;;;6295886;28;20317;-77
2023/04/11 08:50:23;;;;;;;5.10;2.67;;;;;;;;;;6312383;28;20460;-77
2023/04/11 08:53:29;;;;;;;20.10;3.13;;;;;;;;;;6312651;28;20299;-76
2023/04/11 08:56:36;;;;;;;5.80;2.60;;;;;;;;;;6295354;28;20294;-76
2023/04/11 08:59:50;;;;;;;7.03;2.70;;;;;;;;;;6310694;28;20287;-77
2023/04/11 09:02:57;;;;;;;6.88;2.47;;;;;;;;;;6302118;28;20303;-76
2023/04/11 09:06:10;;;;;;;3.47;2.42;;;;;;;;;;6287803;28;20298;-77
2023/04/11 09:09:29;;;;;;;13.32;2.80;;;;;;;;;;6286946;28;20295;-75
2023/04/11 09:12:36;;;;;;;6.65;2.72;;;;;;;;;;6309453;28;20294;-76
2023/04/11 09:15:41;;;;;;;4.55;2.80;;;;;;;;;;6311287;28;20298;-75
2023/04/11 09:18:47;;;;;;;2.92;2.60;;;;;;;;;;6311438;28;20580;-75
2023/04/11 09:21:52;;;;;;;10.07;2.60;;;;;;;;;;6304896;28;20578;-75
2023/04/11 09:25:03;;;;;;;4.72;2.47;;;;;;;;;;6312323;28;20295;-75
2023/04/11 09:28:11;;;;;;;3.10;2.25;;;;;;;;;;6311673;28;20308;-77
2023/04/11 09:31:17;;;;;;;10.30;3.08;;;;;;;;;;6312228;28;20295;-74
2023/04/11 09:34:26;;;;;;;3.70;2.53;;;;;;;;;;6311802;28;20299;-75
2023/04/11 09:37:43;;;;;;;4.63;2.70;;;;;;;;;;6311656;28;20298;-74
2023/04/11 09:40:49;;;;;;;3.42;2.58;;;;;;;;;;6311002;28;20326;-74
2023/04/11 09:43:55;;;;;;;3.00;2.70;;;;;;;;;;6293540;28;20294;-75
2023/04/11 09:47:01;;;;;;;4.65;2.97;;;;;;;;;;6312034;28;20286;-75
2023/04/11 09:50:07;;;;;;;5.57;2.63;;;;;;;;;;6293219;28;20290;-76
2023/04/11 09:53:13;;;;;;;7.13;2.47;;;;;;;;;;6293464;28;20298;-75
2023/04/11 09:56:18;;;;;;;8.68;2.88;;;;;;;;;;6311770;28;20602;-77
2023/04/11 09:59:27;;;;;;;6.50;2.50;;;;;;;;;;6310764;28;20319;-76
2023/04/11 10:02:32;;;;;;;7.13;2.53;;;;;;;;;;6311624;28;20302;-77
2023/04/11 10:05:38;;;;;;;11.70;2.90;;;;;;;;;;6310088;28;20277;-77
2023/04/11 10:08:44;;;;;;;6.95;2.60;;;;;;;;;;6310682;28;20318;-77
2023/04/11 10:11:49;;;;;;;6.10;2.38;;;;;;;;;;6318914;28;20269;-77
2023/04/11 10:14:57;;;;;;;9.40;3.08;;;;;;;;;;6335890;28;20290;-78
2023/04/11 10:18:12;;;;;;;4.70;2.50;;;;;;;;;;6335447;28;20301;-77
2023/04/11 10:21:39;;;;;;;3.25;2.33;;;;;;;;;;6335949;28;20298;-76
2023/04/11 10:25:15;;;;;;;3.90;2.60;;;;;;;;;;6335673;28;20302;-76
2023/04/11 10:28:37;;;;;;;4.60;2.17;;;;;;;;;;6335068;28;20297;-77
2023/04/11 10:32:08;;;;;;;3.80;2.60;;;;;;;;;;6335899;28;20366;-77
2023/04/11 10:35:34;;;;;;;3.30;2.33;;;;;;;;;;6335536;28;20290;-75
2023/04/11 10:38:49;;;;;;;10.73;2.42;;;;;;;;;;6316074;28;20294;-76
2023/04/11 10:41:55;;;;;;;5.00;2.78;;;;;;;;;;6335392;28;20265;-79
2023/04/11 10:45:16;;;;;;;9.30;2.78;;;;;;;;;;6334855;28;20289;-77
2023/04/11 10:48:23;;;;;;;8.38;2.53;;;;;;;;;;6334117;28;20305;-78
2023/04/11 10:51:29;;;;;;;2.78;2.38;;;;;;;;;;6335627;28;20293;-76
2023/04/11 10:54:34;;;;;;;5.65;3.05;;;;;;;;;;6334083;28;20290;-78
2023/04/11 10:58:04;;;;;;;4.22;3.08;;;;;;;;;;6334433;28;20290;-75
2023/04/11 11:01:18;;;;;;;2.85;2.65;;;;;;;;;;6335089;28;20289;-75
2023/04/11 11:04:42;;;;;;;11.85;2.30;;;;;;;;;;6334184;28;20293;-74
2023/04/11 11:07:49;;;;;;;2.53;2.30;;;;;;;;;;6334426;28;20471;-75
2023/04/11 11:10:54;;;;;;;6.45;2.17;;;;;;;;;;6324053;28;20275;-76
2023/04/11 11:14:00;;;;;;;2.63;2.33;;;;;;;;;;6334507;28;20577;-77
2023/04/11 11:17:06;;;;;;;6.85;2.17;;;;;;;;;;6334518;28;20297;-77
2023/04/11 11:20:18;;;;;;;8.60;2.50;;;;;;;;;;6335327;28;20467;-76
2023/04/11 11:23:24;;;;;;;17.25;2.35;;;;;;;;;;6334369;28;20294;-77
2023/04/11 11:26:40;;;;;;;5.47;2.30;;;;;;;;;;6335385;28;20325;-77
2023/04/11 11:29:45;;;;;;;2.38;2.17;;;;;;;;;;6333424;28;20305;-75
2023/04/11 11:32:50;;;;;;;5.35;2.55;;;;;;;;;;6333969;28;20545;-76
2023/04/11 11:35:58;;;;;;;12.68;2.42;;;;;;;;;;6334856;28;20542;-75
2023/04/11 11:39:04;;;;;;;2.72;2.40;;;;;;;;;;6334222;28;20294;-77
2023/04/11 11:42:10;;;;;;;7.78;2.28;;;;;;;;;;6334224;28;20290;-77
2023/04/11 11:45:16;;;;;;;7.40;2.33;;;;;;;;;;6334299;28;20578;-76
2023/04/11 11:48:23;;;;;;;4.85;2.30;;;;;;;;;;6333790;28;20293;-77
2023/04/11 11:51:40;;;;;;;6.20;2.70;;;;;;;;;;6334646;28;20298;-76
2023/04/11 11:54:46;;;;;;;2.80;2.50;;;;;;;;;;6333937;28;20539;-76
2023/04/11 11:57:51;;;;;;;4.15;2.50;;;;;;;;;;6334465;28;20610;-76
2023/04/11 12:00:56;;;;;;;4.80;2.50;;;;;;;;;;6334607;28;20446;-77
2023/04/11 12:04:03;;;;;;;4.00;2.70;;;;;;;;;;6333161;28;20301;-75
2023/04/11 12:07:11;;;;;;;7.13;2.85;;;;;;;;;;6334283;28;20345;-76
2023/04/11 12:10:17;;;;;;;4.90;2.78;;;;;;;;;;6327173;28;20456;-76
2023/04/11 12:13:26;;;;;;;7.68;2.75;;;;;;;;;;6330485;28;20293;-76
2023/04/11 12:16:31;;;;;;;4.75;2.92;;;;;;;;;;6334601;28;20285;-76
2023/04/11 12:19:36;;;;;;;3.95;3.20;;;;;;;;;;6333703;28;20297;-76
2023/04/11 12:22:43;;;;;;;6.05;3.40;;;;;;;;;;6333703;28;20589;-76
2023/04/11 12:25:48;;;;;;;5.03;2.75;;;;;;;;;;6334313;28;20286;-77
2023/04/11 12:28:53;;;;;;;7.13;2.92;;;;;;;;;;6333644;28;20301;-77
2023/04/11 12:31:59;;;;;;;10.02;3.35;;;;;;;;;;6334248;28;20294;-76
2023/04/11 12:35:05;;;;;;;7.55;3.55;;;;;;;;;;6337070;28;20294;-77
2023/04/11 12:38:14;;;;;;;5.03;2.85;;;;;;;;;;6338090;28;20475;-77
2023/04/11 12:41:22;;;;;;;3.58;3.25;;;;;;;;;;6338878;28;20298;-77
2023/04/11 12:44:36;;;;;;;5.53;3.38;;;;;;;;;;6338105;28;20479;-77
2023/04/11 12:47:42;;;;;;;12.93;3.58;;;;;;;;;;6319035;28;20318;-77
2023/04/11 12:50:47;;;;;;;6.95;3.22;;;;;;;;;;6330008;28;20270;-75
2023/04/11 12:53:53;;;;;;;12.23;3.60;;;;;;;;;;6329529;28;20450;-75
2023/04/11 12:56:59;;;;;;;5.75;3.35;;;;;;;;;;6338025;28;20453;-74
2023/04/11 13:00:07;;;;;;;4.05;3.80;;;;;;;;;;6337433;28;20302;-74
2023/04/11 13:03:12;;;;;;;6.05;3.70;;;;;;;;;;6337314;28;20302;-74
2023/04/11 13:06:18;;;;;;;4.35;3.95;;;;;;;;;;6337883;28;20289;-75
2023/04/11 13:09:28;;;;;;;6.03;3.75;;;;;;;;;;6337556;28;20321;-76
2023/04/11 13:12:38;;;;;;;9.00;3.63;;;;;;;;;;6335240;28;20298;-76
2023/04/11 13:15:45;;;;;;;4.35;3.88;;;;;;;;;;6337211;28;20286;-75
2023/04/11 13:18:50;;;;;;;9.13;3.95;;;;;;;;;;6337169;28;20467;-76
2023/04/11 13:21:56;;;;;;;5.88;4.05;;;;;;;;;;6337425;28;20449;-76
2023/04/11 13:25:02;;;;;;;4.43;4.03;;;;;;;;;;6337169;28;20294;-76
2023/04/11 13:28:08;;;;;;;7.57;3.80;;;;;;;;;;6337439;28;20285;-75
2023/04/11 13:31:13;;;;;;;9.02;4.18;;;;;;;;;;6337729;28;20290;-78
2023/04/11 13:34:18;;;;;;;4.32;4.00;;;;;;;;;;6336991;28;20388;-77
2023/04/11 13:37:23;;;;;;;5.90;4.32;;;;;;;;;;6337260;28;20285;-76
2023/04/11 13:40:30;;;;;;;4.70;4.28;;;;;;;;;;6336336;28;20502;-77
2023/04/11 13:43:35;;;;;;;6.63;3.92;;;;;;;;;;6336791;28;20454;-76
2023/04/11 13:46:40;;;;;;;4.85;4.25;;;;;;;;;;6336864;28;20293;-75
2023/04/11 13:50:04;;;;;;;5.38;4.40;;;;;;;;;;6318677;28;20297;-74
2023/04/11 13:53:12;;;;;;;5.05;4.43;;;;;;;;;;6336504;28;20401;-76
2023/04/11 13:56:19;;;;;;;9.88;4.90;;;;;;;;;;6336386;28;20481;-76
2023/04/11 13:59:24;;;;;;;8.88;5.25;;;;;;;;;;6318467;28;20293;-77
2023/04/11 14:02:29;;;;;;;6.72;4.85;;;;;;;;;;6336098;28;20297;-78
2023/04/11 14:05:35;;;;;;;8.88;5.68;;;;;;;;;;6318115;28;20285;-76
2023/04/11 14:08:40;;;;;;;8.57;4.75;;;;;;;;;;6334674;28;20285;-76
2023/04/11 14:11:47;;;;;;;9.15;4.57;;;;;;;;;;6324922;28;20257;-77
2023/04/11 14:14:51;;;;;;;9.75;5.00;;;;;;;;;;6327665;28;20444;-75
2023/04/11 14:17:57;;;;;;;5.47;4.72;;;;;;;;;;6335681;28;20388;-77
2023/04/11 14:21:02;;;;;;;7.45;5.03;;;;;;;;;;6336270;28;20298;-77
2023/04/11 14:24:08;;;;;;;5.03;4.57;;;;;;;;;;6335691;28;20289;-76
2023/04/11 14:27:15;;;;;;;8.95;4.70;;;;;;;;;;6336782;28;20290;-76
2023/04/11 14:30:21;;;;;;;7.15;5.28;;;;;;;;;;6335174;28;20294;-76
2023/04/11 14:33:26;;;;;;;5.95;5.28;;;;;;;;;;6335147;28;20447;-76
2023/04/11 14:36:31;;;;;;;11.98;5.00;;;;;;;;;;6335828;28;20338;-77
2023/04/11 14:39:38;;;;;;;8.73;4.70;;;;;;;;;;6335359;28;20290;-78
2023/04/11 14:42:45;;;;;;;5.70;5.10;;;;;;;;;;6334533;28;20293;-76
2023/04/11 14:45:54;;;;;;;8.38;5.07;;;;;;;;;;6336222;28;20289;-77
2023/04/11 14:49:00;;;;;;;7.15;5.25;;;;;;;;;;6333658;28;20294;-76
2023/04/11 14:52:05;;;;;;;7.20;5.05;;;;;;;;;;6335247;28;20513;-76
2023/04/11 14:55:11;;;;;;;5.55;5.10;;;;;;;;;;6334321;28;20297;-80
2023/04/11 14:58:18;;;;;;;5.22;4.90;;;;;;;;;;6316001;28;20297;-76
2023/04/11 15:01:23;;;;;;;12.95;5.70;;;;;;;;;;6334763;28;20313;-77
2023/04/11 15:04:28;;;;;;;10.55;5.57;;;;;;;;;;6333930;28;20466;-77
2023/04/11 15:07:33;;;;;;;13.27;5.97;;;;;;;;;;6335107;28;20289;-76
2023/04/11 15:10:38;;;;;;;12.55;5.65;;;;;;;;;;6306252;28;20290;-77
2023/04/11 15:13:46;;;;;;;6.90;5.32;;;;;;;;;;6333278;28;20347;-76
2023/04/11 15:16:51;;;;;;;13.23;5.68;;;;;;;;;;6334667;28;20293;-77
2023/04/11 15:19:57;;;;;;;7.78;5.63;;;;;;;;;;6333845;28;20306;-77
2023/04/11 15:23:02;;;;;;;7.65;5.55;;;;;;;;;;6334226;28;20297;-76
2023/04/11 15:26:08;;;;;;;12.82;6.35;;;;;;;;;;6334237;28;20290;-77
2023/04/11 15:29:16;;;;;;;8.02;5.55;;;;;;;;;;6334187;28;20478;-78
2023/04/11 15:32:21;;;;;;;6.72;6.07;;;;;;;;;;6334490;28;20289;-77
2023/04/11 15:35:26;;;;;;;13.60;6.07;;;;;;;;;;6333702;28;20297;-76
2023/04/11 15:38:32;;;;;;;9.52;6.07;;;;;;;;;;6333890;28;20289;-76
2023/04/11 15:41:37;;;;;;;16.15;6.50;;;;;;;;;;6333777;28;20281;-75
2023/04/11 15:44:43;;;;;;;17.52;6.35;;;;;;;;;;6333921;28;20606;-76
2023/04/11 15:47:48;;;;;;;7.05;6.15;;;;;;;;;;6333511;28;20269;-76
2023/04/11 15:50:54;;;;;;;15.73;6.60;;;;;;;;;;6334126;28;20273;-75
2023/04/11 15:53:59;;;;;;;13.48;6.57;;;;;;;;;;6333746;28;20297;-76
2023/04/11 15:57:04;;;;;;;12.57;6.35;;;;;;;;;;6334802;28;20446;-76
2023/04/11 16:00:14;;;;;;;10.68;6.43;;;;;;;;;;6333702;28;20301;-76
2023/04/11 16:03:19;;;;;;;12.30;6.38;;;;;;;;;;6333581;28;20309;-76
2023/04/11 16:06:26;;;;;;;8.82;6.10;;;;;;;;;;6334624;28;20390;-77
2023/04/11 16:09:31;;;;;;;7.63;6.28;;;;;;;;;;6336305;28;20550;-77
2023/04/11 16:12:36;;;;;;;11.77;6.88;;;;;;;;;;6328778;28;20595;-78
2023/04/11 16:15:43;;;;;;;7.53;6.50;;;;;;;;;;6338905;28;20289;-76
2023/04/11 16:18:48;;;;;;;10.70;6.53;;;;;;;;;;6338397;28;20293;-76
2023/04/11 16:21:53;;;;;;;13.45;6.78;;;;;;;;;;6339104;28;20298;-76
2023/04/11 16:25:00;;;;;;;7.50;6.70;;;;;;;;;;6338483;28;20289;-78
2023/04/11 16:28:05;;;;;;;8.80;6.60;;;;;;;;;;6319940;28;20297;-77
2023/04/11 16:31:13;;;;;;;9.50;6.90;;;;;;;;;;6338836;28;20455;-77
2023/04/11 16:34:19;;;;;;;13.07;6.68;;;;;;;;;;6338635;28;20294;-78
2023/04/11 16:37:24;;;;;;;11.20;7.70;;;;;;;;;;6338852;28;20285;-78
2023/04/11 16:40:30;;;;;;;17.35;8.20;;;;;;;;;;6320234;28;20293;-77
2023/04/11 16:43:35;;;;;;;15.52;8.15;;;;;;;;;;6338267;28;20306;-77
2023/04/11 16:46:42;;;;;;;12.35;8.32;;;;;;;;;;6338589;28;20316;-80
2023/04/11 16:49:47;;;;;;;20.88;8.40;;;;;;;;;;6337791;28;20286;-77
2023/04/11 16:52:52;;;;;;;25.13;8.43;;;;;;;;;;6337768;28;20284;-78
2023/04/11 16:55:58;;;;;;;9.98;7.90;;;;;;;;;;6338241;28;20435;-78
2023/04/11 16:59:03;;;;;;;17.25;8.10;;;;;;;;;;6320427;28;20293;-76
2023/04/11 17:02:11;;;;;;;12.27;7.95;;;;;;;;;;6337796;28;20301;-79
2023/04/11 17:05:18;;;;;;;10.13;7.35;;;;;;;;;;6337712;28;20293;-77
2023/04/11 17:08:25;;;;;;;12.40;8.43;;;;;;;;;;6337465;28;20290;-77
2023/04/11 17:11:30;;;;;;;11.88;7.93;;;;;;;;;;6326767;28;20286;-78
2023/04/11 17:14:35;;;;;;;15.77;7.80;;;;;;;;;;6337297;28;20290;-75
2023/04/11 17:17:43;;;;;;;15.32;8.13;;;;;;;;;;6318208;28;20269;-77
2023/04/11 17:20:48;;;;;;;12.77;8.23;;;;;;;;;;6337302;28;20558;-76
2023/04/11 17:23:54;;;;;;;13.82;8.63;;;;;;;;;;6336328;28;20302;-78
2023/04/11 17:26:59;;;;;;;14.25;7.97;;;;;;;;;;6337834;28;20286;-76
2023/04/11 17:30:06;;;;;;;10.52;7.97;;;;;;;;;;6337229;28;20301;-76
2023/04/11 17:33:14;;;;;;;15.73;8.70;;;;;;;;;;6337242;28;20298;-77
2023/04/11 17:36:20;;;;;;;13.65;9.10;;;;;;;;;;6337356;28;20297;-77
2023/04/11 17:39:25;;;;;;;16.15;8.88;;;;;;;;;;6337166;28;20286;-78
2023/04/11 17:42:31;;;;;;;29.45;10.88;;;;;;;;;;6337165;28;20293;-78
2023/04/11 17:45:36;;;;;;;18.00;9.93;;;;;;;;;;6336671;28;20293;-77
2023/04/11 17:48:42;;;;;;;23.25;10.20;;;;;;;;;;6336470;28;20289;-77
2023/04/11 17:51:48;;;;;;;30.20;10.93;;;;;;;;;;6328404;28;20290;-76
2023/04/11 17:55:03;;;;;;;21.48;8.95;;;;;;;;;;6335975;28;20297;-77
2023/04/11 17:58:11;;;;;;;20.17;9.68;;;;;;;;;;6336064;28;20293;-78
2023/04/11 18:01:16;;;;;;;13.57;8.07;;;;;;;;;;6336766;28;20289;-76
2023/04/11 18:04:23;;;;;;;14.88;8.50;;;;;;;;;;6291890;28;20287;-78
2023/04/11 18:07:28;;;;;;;17.27;8.95;;;;;;;;;;6311900;28;20409;-77
2023/04/11 18:10:33;;;;;;;13.70;7.93;;;;;;;;;;6307467;28;20599;-78
2023/04/11 18:13:39;;;;;;;11.40;8.45;;;;;;;;;;6311152;28;20298;-79
2023/04/11 18:16:46;;;;;;;12.10;8.20;;;;;;;;;;6311559;28;20602;-79
2023/04/11 18:19:53;;;;;;;8.35;7.53;;;;;;;;;;6311029;28;20302;-78
2023/04/11 18:22:58;;;;;;;11.77;7.93;;;;;;;;;;6311000;28;20614;-78
2023/04/11 18:26:03;;;;;;;11.63;7.43;;;;;;;;;;6310743;28;20311;-78
2023/04/11 18:29:08;;;;;;;14.80;8.15;;;;;;;;;;6310741;28;20294;-79
2023/04/11 18:32:14;;;;;;;9.95;7.53;;;;;;;;;;6310022;28;20610;-77
2023/04/11 18:35:20;;;;;;;13.68;7.72;;;;;;;;;;6292868;28;20488;-78